createdAt,value
2023-05-10T00:01:42.822Z,2.83
2023-05-10T00:04:10.608Z,3.30
2023-05-10T00:06:38.155Z,2.77
2023-05-10T00:09:07.114Z,3.13
2023-05-10T00:11:34.570Z,2.87
2023-05-10T00:14:02.006Z,5.17
2023-05-10T00:16:29.667Z,3.00
2023-05-10T00:18:57.144Z,3.87
2023-05-10T00:21:24.609Z,2.80
2023-05-10T00:23:52.076Z,2.70
2023-05-10T00:26:20.856Z,3.20
2023-05-10T00:28:52.916Z,3.30
2023-05-10T00:31:20.578Z,3.00
2023-05-10T00:33:48.009Z,3.60
2023-05-10T00:36:15.492Z,3.00
2023-05-10T00:38:42.951Z,3.20
2023-05-10T00:41:10.428Z,3.10
2023-05-10T00:43:41.617Z,2.50
2023-05-10T00:46:09.764Z,3.30
2023-05-10T00:48:37.344Z,3.17
2023-05-10T00:51:05.257Z,3.20
2023-05-10T00:53:33.669Z,3.50
2023-05-10T00:56:01.541Z,3.07
2023-05-10T00:58:31.787Z,3.10
2023-05-10T01:01:01.290Z,3.50
2023-05-10T01:03:29.787Z,3.73
2023-05-10T01:05:57.509Z,3.00
2023-05-10T01:08:25.966Z,3.03
2023-05-10T01:10:53.555Z,2.97
2023-05-10T01:13:33.457Z,3.10
2023-05-10T01:16:04.212Z,3.70
2023-05-10T01:18:34.531Z,3.30
2023-05-10T01:21:12.958Z,3.00
2023-05-10T01:24:14.465Z,3.23
2023-05-10T01:27:17.879Z,3.77
2023-05-10T01:30:16.340Z,3.30
2023-05-10T01:32:51.635Z,3.30
2023-05-10T01:35:24.773Z,3.10
2023-05-10T01:37:57.232Z,3.77
2023-05-10T01:40:31.489Z,3.80
2023-05-10T01:43:05.869Z,3.10
2023-05-10T01:45:38.851Z,4.17
2023-05-10T01:48:10.457Z,3.70
2023-05-10T01:50:41.827Z,3.37
2023-05-10T01:53:12.486Z,3.23
2023-05-10T01:55:47.308Z,3.50
2023-05-10T01:58:26.900Z,3.23
2023-05-10T02:00:55.762Z,3.93
2023-05-10T02:03:37.175Z,3.43
2023-05-10T02:06:06.832Z,3.60
2023-05-10T02:08:37.769Z,4.03
2023-05-10T02:11:06.637Z,4.20
2023-05-10T02:13:37.848Z,3.70
2023-05-10T02:16:07.346Z,4.77
2023-05-10T02:18:37.879Z,4.10
2023-05-10T02:21:06.406Z,3.80
2023-05-10T02:23:34.722Z,4.80
2023-05-10T02:26:06.696Z,4.63
2023-05-10T02:28:35.548Z,4.17
2023-05-10T02:31:03.303Z,4.63
2023-05-10T02:33:33.157Z,4.10
2023-05-10T02:36:04.138Z,5.10
2023-05-10T02:38:34.156Z,3.93
2023-05-10T02:41:03.345Z,4.63
2023-05-10T02:43:34.148Z,4.67
2023-05-10T02:46:02.082Z,4.20
2023-05-10T02:48:30.574Z,4.00
2023-05-10T02:51:02.831Z,4.67
2023-05-10T02:53:33.664Z,5.10
2023-05-10T02:56:08.077Z,4.50
2023-05-10T02:58:35.652Z,3.70
2023-05-10T03:01:03.319Z,4.60
2023-05-10T03:03:30.829Z,4.63
2023-05-10T03:05:59.427Z,4.43
2023-05-10T03:08:30.173Z,4.67
2023-05-10T03:11:11.254Z,5.17
2023-05-10T03:13:48.285Z,5.50
2023-05-10T03:16:18.639Z,4.13
2023-05-10T03:18:49.779Z,4.63
2023-05-10T03:21:20.596Z,4.60
2023-05-10T03:23:56.576Z,4.73
2023-05-10T03:26:29.128Z,5.03
2023-05-10T03:29:06.287Z,5.00
2023-05-10T03:31:35.145Z,5.40
2023-05-10T03:34:02.775Z,5.03
2023-05-10T03:36:30.325Z,5.07
2023-05-10T03:38:57.978Z,4.90
2023-05-10T03:41:27.588Z,4.97
2023-05-10T03:43:55.477Z,5.00
2023-05-10T03:46:23.505Z,5.30
2023-05-10T03:48:51.265Z,4.73
2023-05-10T03:51:19.758Z,4.97
2023-05-10T03:53:47.224Z,5.23
2023-05-10T03:56:14.814Z,4.77
2023-05-10T03:58:43.638Z,4.60
2023-05-10T04:01:11.368Z,4.67
2023-05-10T04:03:39.183Z,5.47
2023-05-10T04:06:09.154Z,5.10
2023-05-10T04:08:36.743Z,5.50
2023-05-10T04:11:08.769Z,4.23
2023-05-10T04:13:37.102Z,5.93
2023-05-10T04:16:06.890Z,6.13
2023-05-10T04:18:36.795Z,5.10
2023-05-10T04:21:04.470Z,5.50
2023-05-10T04:23:31.951Z,5.97
2023-05-10T04:26:03.006Z,5.60
2023-05-10T04:28:30.830Z,6.40
2023-05-10T04:31:03.614Z,5.30
2023-05-10T04:33:33.413Z,5.80
2023-05-10T04:36:00.987Z,5.77
2023-05-10T04:38:28.680Z,5.47
2023-05-10T04:40:56.449Z,4.67
2023-05-10T04:43:23.916Z,5.80
2023-05-10T04:45:51.538Z,5.30
2023-05-10T04:48:19.126Z,5.27
2023-05-10T04:50:47.977Z,6.00
2023-05-10T04:53:16.046Z,5.93
2023-05-10T04:55:43.977Z,5.10
2023-05-10T04:58:11.570Z,5.70
2023-05-10T05:00:39.075Z,5.80
2023-05-10T05:03:07.106Z,5.00
2023-05-10T05:05:34.608Z,5.53
2023-05-10T05:08:03.501Z,6.53
2023-05-10T05:10:31.328Z,5.00
2023-05-10T05:12:58.968Z,5.63
2023-05-10T05:15:26.486Z,5.63
2023-05-10T05:17:54.088Z,5.30
2023-05-10T05:20:21.682Z,5.00
2023-05-10T05:22:49.219Z,5.50
2023-05-10T05:25:18.291Z,5.37
2023-05-10T05:27:45.789Z,6.73
2023-05-10T05:30:13.717Z,6.07
2023-05-10T05:32:41.332Z,5.53
2023-05-10T05:35:09.613Z,5.77
2023-05-10T05:37:38.123Z,6.53
2023-05-10T05:40:06.715Z,6.10
2023-05-10T05:42:39.554Z,5.30
2023-05-10T05:45:09.645Z,5.40
2023-05-10T05:47:37.221Z,5.27
2023-05-10T05:50:05.245Z,6.90
2023-05-10T05:52:32.829Z,6.40
2023-05-10T05:55:02.412Z,6.27
2023-05-10T05:57:30.009Z,5.70
2023-05-10T05:59:58.919Z,5.67
2023-05-10T06:02:26.571Z,5.20
2023-05-10T06:04:54.098Z,7.10
2023-05-10T06:07:21.963Z,6.50
2023-05-10T06:09:49.486Z,5.17
2023-05-10T06:12:16.975Z,7.07
2023-05-10T06:14:44.458Z,6.00
2023-05-10T06:17:13.278Z,6.33
2023-05-10T06:19:40.800Z,5.97
2023-05-10T06:22:08.657Z,6.17
2023-05-10T06:24:36.193Z,6.20
2023-05-10T06:27:04.976Z,6.33
2023-05-10T06:29:32.482Z,5.50
2023-05-10T06:32:00.220Z,5.63
2023-05-10T06:34:29.106Z,6.90
2023-05-10T06:36:56.655Z,5.73
2023-05-10T06:39:24.137Z,5.50
2023-05-10T06:41:51.723Z,6.40
2023-05-10T06:44:20.617Z,5.80
2023-05-10T06:46:48.188Z,6.03
2023-05-10T06:49:15.693Z,5.83
2023-05-10T06:51:44.791Z,6.10
2023-05-10T06:54:12.296Z,5.90
2023-05-10T06:56:39.810Z,4.73
2023-05-10T06:59:07.698Z,6.23
2023-05-10T07:01:38.738Z,6.80
2023-05-10T07:04:06.314Z,7.47
2023-05-10T07:06:34.389Z,5.63
2023-05-10T07:09:03.477Z,6.20
2023-05-10T07:11:30.994Z,5.77
2023-05-10T07:13:58.538Z,6.43
2023-05-10T07:16:26.060Z,5.90
2023-05-10T07:18:54.478Z,6.33
2023-05-10T07:21:24.783Z,6.40
2023-05-10T07:23:52.672Z,6.80
2023-05-10T07:26:21.782Z,5.50
2023-05-10T07:28:49.497Z,7.23
2023-05-10T07:31:17.006Z,7.33
2023-05-10T07:33:44.501Z,6.50
2023-05-10T07:36:12.038Z,7.20
2023-05-10T07:38:40.914Z,6.47
2023-05-10T07:41:08.529Z,6.90
2023-05-10T07:43:43.757Z,6.70
2023-05-10T07:46:12.203Z,6.80
2023-05-10T07:48:39.741Z,6.47
2023-05-10T07:51:10.122Z,6.47
2023-05-10T07:53:37.604Z,5.37
2023-05-10T07:56:23.828Z,6.37
2023-05-10T07:58:52.758Z,6.07
2023-05-10T08:01:20.734Z,6.70
2023-05-10T08:03:48.396Z,8.20
2023-05-10T08:06:16.364Z,5.60
2023-05-10T08:08:43.875Z,8.60
2023-05-10T08:11:11.738Z,6.50
2023-05-10T08:13:39.229Z,6.40
2023-05-10T08:16:08.244Z,7.37
2023-05-10T08:18:35.835Z,5.77
2023-05-10T08:21:03.389Z,6.60
2023-05-10T08:23:30.882Z,15.50
2023-05-10T08:25:58.487Z,6.70
2023-05-10T08:28:26.024Z,6.80
2023-05-10T08:30:59.341Z,6.27
2023-05-10T08:33:34.260Z,5.80
2023-05-10T08:36:01.759Z,5.60
2023-05-10T08:38:29.281Z,5.10
2023-05-10T08:40:59.340Z,6.40
2023-05-10T08:43:29.994Z,6.77
2023-05-10T08:45:58.665Z,5.00
2023-05-10T08:48:26.663Z,5.87
2023-05-10T08:50:56.825Z,5.03
2023-05-10T08:53:26.842Z,5.43
2023-05-10T08:55:54.852Z,3.70
2023-05-10T08:58:22.635Z,5.30
2023-05-10T09:00:52.396Z,4.30
2023-05-10T09:03:20.186Z,4.90
2023-05-10T09:05:48.237Z,6.10
2023-05-10T09:08:17.854Z,5.10
2023-05-10T09:10:45.523Z,4.97
2023-05-10T09:13:13.375Z,3.30
2023-05-10T09:15:40.927Z,2.93
2023-05-10T09:18:08.535Z,4.10
2023-05-10T09:20:36.090Z,2.20
2023-05-10T09:23:03.581Z,2.07
2023-05-10T09:25:34.147Z,1.53
2023-05-10T09:28:01.941Z,2.30
2023-05-10T09:30:30.709Z,1.83
2023-05-10T09:32:59.487Z,1.80
2023-05-10T09:35:29.861Z,2.17
2023-05-10T09:37:59.716Z,3.03
2023-05-10T09:40:28.764Z,4.17
2023-05-10T09:42:59.426Z,3.43
2023-05-10T09:45:29.105Z,3.77
2023-05-10T09:47:57.352Z,3.03
2023-05-10T09:50:25.388Z,3.83
2023-05-10T09:52:55.471Z,2.53
2023-05-10T09:55:24.627Z,3.00
2023-05-10T09:58:03.228Z,2.70
2023-05-10T10:00:37.312Z,2.23
2023-05-10T10:03:06.492Z,2.00
2023-05-10T10:05:35.154Z,2.23
2023-05-10T10:08:04.627Z,2.43
2023-05-10T10:10:34.373Z,5.33
2023-05-10T10:13:06.967Z,4.53
2023-05-10T10:15:34.982Z,6.43
2023-05-10T10:18:04.546Z,8.37
2023-05-10T10:20:32.179Z,8.03
2023-05-10T10:22:59.616Z,4.80
2023-05-10T10:25:27.279Z,3.87
2023-05-10T10:28:09.930Z,2.47
2023-05-10T10:30:41.507Z,3.30
2023-05-10T10:33:28.832Z,3.17
2023-05-10T10:35:59.824Z,2.47
2023-05-10T10:38:27.520Z,2.50
2023-05-10T10:41:04.702Z,2.27
2023-05-10T10:43:33.570Z,2.70
2023-05-10T10:46:15.353Z,3.63
2023-05-10T10:48:43.802Z,3.20
2023-05-10T10:51:12.905Z,3.47
2023-05-10T10:53:42.572Z,3.50
2023-05-10T10:56:11.770Z,3.30
2023-05-10T10:58:41.365Z,3.60
2023-05-10T11:01:16.818Z,3.00
2023-05-10T11:04:18.576Z,4.17
2023-05-10T11:06:46.094Z,3.63
2023-05-10T11:09:14.416Z,3.37
2023-05-10T11:11:55.753Z,3.87
2023-05-10T11:14:24.648Z,3.80
2023-05-10T11:16:52.691Z,3.73
2023-05-10T11:19:21.054Z,3.27
2023-05-10T11:21:50.511Z,3.43
2023-05-10T11:24:20.990Z,3.53
2023-05-10T11:26:52.381Z,4.10
2023-05-10T11:29:20.148Z,4.20
2023-05-10T11:31:59.744Z,3.47
2023-05-10T11:34:28.760Z,3.70
2023-05-10T11:36:57.914Z,3.90
2023-05-10T11:39:28.554Z,3.80
2023-05-10T11:41:56.400Z,3.93
2023-05-10T11:44:24.012Z,3.47
2023-05-10T11:46:53.851Z,4.33
2023-05-10T11:49:24.896Z,3.50
2023-05-10T11:51:52.317Z,5.80
2023-05-10T11:54:19.743Z,3.40
2023-05-10T11:56:47.329Z,3.90
2023-05-10T11:59:16.620Z,3.63
2023-05-10T12:01:44.254Z,4.27
2023-05-10T12:04:13.381Z,3.70
2023-05-10T12:06:42.671Z,3.53
2023-05-10T12:09:10.458Z,3.80
2023-05-10T12:11:42.559Z,3.63
2023-05-10T12:14:11.576Z,3.33
2023-05-10T12:16:39.094Z,3.93
2023-05-10T12:19:09.178Z,4.37
2023-05-10T12:21:42.417Z,4.10
2023-05-10T12:24:10.203Z,3.50
2023-05-10T12:26:38.188Z,3.40
2023-05-10T12:29:16.524Z,3.53
2023-05-10T12:31:54.797Z,3.33
2023-05-10T12:34:29.062Z,3.20
2023-05-10T12:36:57.855Z,3.83
2023-05-10T12:39:25.556Z,4.00
2023-05-10T12:41:53.294Z,3.80
2023-05-10T12:44:20.922Z,3.20
2023-05-10T12:46:48.630Z,4.13
2023-05-10T12:49:16.239Z,4.73
2023-05-10T12:51:43.696Z,5.60
2023-05-10T12:54:12.975Z,3.20
2023-05-10T12:56:41.742Z,3.40
2023-05-10T12:59:09.253Z,3.37
2023-05-10T13:01:37.061Z,3.60
2023-05-10T13:04:04.576Z,3.00
2023-05-10T13:06:32.263Z,3.00
2023-05-10T13:08:59.734Z,3.20
2023-05-10T13:11:28.648Z,2.93
2023-05-10T13:13:56.537Z,3.20
2023-05-10T13:16:24.107Z,2.97
2023-05-10T13:18:51.803Z,3.40
2023-05-10T13:21:19.427Z,3.77
2023-05-10T13:23:47.486Z,3.97
2023-05-10T13:26:15.011Z,4.33
2023-05-10T13:28:43.919Z,4.23
2023-05-10T13:31:11.462Z,3.67
2023-05-10T13:33:39.138Z,3.70
2023-05-10T13:36:08.089Z,4.27
2023-05-10T13:38:35.691Z,3.10
2023-05-10T13:41:03.279Z,2.77
2023-05-10T13:43:31.102Z,3.50
2023-05-10T13:46:00.218Z,3.47
2023-05-10T13:48:30.324Z,4.73
2023-05-10T13:50:57.965Z,3.93
2023-05-10T13:53:25.481Z,4.10
2023-05-10T13:55:52.964Z,4.30
2023-05-10T13:58:20.477Z,4.27
2023-05-10T14:00:48.054Z,4.50
2023-05-10T14:03:17.174Z,4.30
2023-05-10T14:05:45.888Z,5.47
2023-05-10T14:08:14.091Z,4.23
2023-05-10T14:10:41.590Z,5.10
2023-05-10T14:13:09.107Z,5.07
2023-05-10T14:15:36.627Z,4.53
2023-05-10T14:18:04.492Z,5.50
2023-05-10T14:20:34.691Z,3.93
2023-05-10T14:23:02.212Z,4.90
2023-05-10T14:25:29.728Z,5.00
2023-05-10T14:27:57.202Z,6.07
2023-05-10T14:30:24.794Z,6.60
2023-05-10T14:32:53.712Z,7.03
2023-05-10T14:35:21.925Z,7.20
2023-05-10T14:37:51.112Z,5.47
2023-05-10T14:40:18.821Z,5.30
2023-05-10T14:42:46.447Z,6.37
2023-05-10T14:45:14.493Z,6.10
2023-05-10T14:47:42.119Z,5.33
2023-05-10T14:50:10.019Z,5.90
2023-05-10T14:52:37.577Z,7.40
2023-05-10T14:55:07.684Z,6.33
2023-05-10T14:57:40.286Z,7.30
2023-05-10T15:00:08.994Z,7.13
2023-05-10T15:02:37.069Z,6.13
2023-05-10T15:05:05.525Z,7.60
2023-05-10T15:07:34.320Z,12.97
2023-05-10T15:10:02.085Z,7.23
2023-05-10T15:12:30.913Z,8.13
2023-05-10T15:14:58.398Z,8.40
2023-05-10T15:17:25.922Z,6.73
2023-05-10T15:19:53.523Z,7.00
2023-05-10T15:22:22.059Z,6.87
2023-05-10T15:24:49.560Z,6.30
2023-05-10T15:27:17.218Z,6.47
2023-05-10T15:29:46.243Z,6.20
2023-05-10T15:32:13.848Z,7.30
2023-05-10T15:34:41.920Z,7.70
2023-05-10T15:37:09.403Z,7.37
2023-05-10T15:39:36.948Z,7.20
2023-05-10T15:42:04.957Z,9.77
2023-05-10T15:44:32.501Z,7.37
2023-05-10T15:47:01.413Z,7.03
2023-05-10T15:49:29.011Z,6.70
2023-05-10T15:51:56.714Z,7.13
2023-05-10T15:54:24.216Z,6.50
2023-05-10T15:56:51.707Z,7.63
2023-05-10T15:59:19.222Z,6.80
2023-05-10T16:01:46.840Z,6.30
2023-05-10T16:04:15.962Z,5.83
2023-05-10T16:06:43.499Z,6.63
2023-05-10T16:09:11.412Z,5.03
2023-05-10T16:11:38.901Z,6.00
2023-05-10T16:14:07.361Z,6.43
2023-05-10T16:16:35.137Z,5.97
2023-05-10T16:19:03.982Z,5.90
2023-05-10T16:21:33.390Z,5.10
2023-05-10T16:24:01.599Z,6.10
2023-05-10T16:26:29.295Z,5.03
2023-05-10T16:28:56.813Z,6.93
2023-05-10T16:31:24.353Z,6.47
2023-05-10T16:33:51.809Z,5.17
2023-05-10T16:36:19.476Z,5.87
2023-05-10T16:38:48.346Z,4.73
2023-05-10T16:41:16.431Z,5.37
2023-05-10T16:43:43.879Z,5.83
2023-05-10T16:46:12.444Z,5.10
2023-05-10T16:48:40.012Z,5.30
2023-05-10T16:51:07.724Z,5.80
2023-05-10T16:53:35.351Z,5.70
2023-05-10T16:56:04.353Z,5.27
2023-05-10T16:58:31.854Z,4.23
2023-05-10T17:01:00.097Z,3.97
2023-05-10T17:03:27.616Z,4.97
2023-05-10T17:05:55.253Z,5.27
2023-05-10T17:08:23.024Z,5.43
2023-05-10T17:10:50.486Z,5.60
2023-05-10T17:13:19.312Z,5.93
2023-05-10T17:15:47.840Z,5.50
2023-05-10T17:18:15.490Z,6.00
2023-05-10T17:20:44.955Z,5.03
2023-05-10T17:23:12.724Z,4.93
2023-05-10T17:25:41.892Z,4.43
2023-05-10T17:28:09.457Z,4.80
2023-05-10T17:30:38.348Z,5.03
2023-05-10T17:33:06.639Z,4.80
2023-05-10T17:35:34.415Z,5.37
2023-05-10T17:38:01.948Z,5.27
2023-05-10T17:40:29.836Z,5.37
2023-05-10T17:42:57.483Z,5.20
2023-05-10T17:45:25.006Z,4.13
2023-05-10T17:47:53.933Z,4.83
2023-05-10T17:50:21.561Z,5.33
2023-05-10T17:52:49.087Z,6.07
2023-05-10T17:55:17.102Z,4.40
2023-05-10T17:57:44.976Z,5.20
2023-05-10T18:00:14.213Z,5.33
2023-05-10T18:02:42.502Z,5.60
2023-05-10T18:05:14.783Z,4.97
2023-05-10T18:07:42.384Z,6.93
2023-05-10T18:10:12.081Z,7.93
2023-05-10T18:12:39.727Z,5.80
2023-05-10T18:15:08.206Z,5.50
2023-05-10T18:17:35.856Z,6.30
2023-05-10T18:20:03.546Z,5.83
2023-05-10T18:22:32.450Z,3.83
2023-05-10T18:24:59.946Z,4.50
2023-05-10T18:27:27.500Z,4.67
2023-05-10T18:29:55.187Z,4.93
2023-05-10T18:32:24.699Z,4.60
2023-05-10T18:34:53.893Z,4.33
2023-05-10T18:37:22.566Z,4.80
2023-05-10T18:39:51.677Z,5.40
2023-05-10T18:42:20.358Z,4.40
2023-05-10T18:44:47.843Z,6.80
2023-05-10T18:47:15.386Z,5.40
2023-05-10T18:49:43.667Z,5.00
2023-05-10T18:52:11.539Z,5.77
2023-05-10T18:54:39.174Z,5.80
2023-05-10T18:57:07.985Z,6.40
2023-05-10T18:59:35.585Z,6.20
2023-05-10T19:02:03.208Z,5.20
2023-05-10T19:04:30.749Z,5.73
2023-05-10T19:06:58.326Z,5.17
2023-05-10T19:09:27.596Z,6.20
2023-05-10T19:11:55.449Z,6.97
2023-05-10T19:14:25.162Z,6.23
2023-05-10T19:16:53.120Z,8.83
2023-05-10T19:19:21.267Z,5.23
2023-05-10T19:21:48.951Z,6.20
2023-05-10T19:24:16.915Z,5.53
2023-05-10T19:26:46.920Z,6.13
2023-05-10T19:29:19.087Z,5.67
2023-05-10T19:31:54.313Z,5.40
2023-05-10T19:34:22.114Z,8.10
2023-05-10T19:36:50.027Z,8.23
2023-05-10T19:39:17.623Z,8.30
2023-05-10T19:41:45.347Z,8.00
2023-05-10T19:44:13.442Z,6.43
2023-05-10T19:46:41.172Z,7.20
2023-05-10T19:49:10.062Z,8.77
2023-05-10T19:51:37.570Z,9.77
2023-05-10T19:54:05.136Z,10.73
2023-05-10T19:56:32.957Z,9.07
2023-05-10T19:59:03.465Z,9.10
2023-05-10T20:01:32.655Z,6.80
2023-05-10T20:04:00.359Z,9.10
2023-05-10T20:06:29.351Z,9.23
2023-05-10T20:09:04.091Z,8.80
2023-05-10T20:11:31.652Z,8.80
2023-05-10T20:13:59.219Z,9.60
2023-05-10T20:16:27.021Z,7.67
2023-05-10T20:18:54.732Z,8.43
2023-05-10T20:21:23.828Z,7.97
2023-05-10T20:23:52.655Z,5.80
2023-05-10T20:26:21.639Z,8.87
2023-05-10T20:28:49.196Z,8.07
2023-05-10T20:31:37.401Z,7.00
2023-05-10T20:34:04.948Z,6.33
2023-05-10T20:36:32.515Z,6.10
2023-05-10T20:39:01.829Z,6.20
2023-05-10T20:41:29.461Z,5.57
2023-05-10T20:43:56.942Z,6.33
2023-05-10T20:46:24.659Z,6.70
2023-05-10T20:48:52.166Z,10.03
2023-05-10T20:51:19.672Z,7.80
2023-05-10T20:53:48.468Z,8.03
2023-05-10T20:56:18.570Z,6.77
2023-05-10T20:58:46.041Z,7.67
2023-05-10T21:01:14.477Z,6.93
2023-05-10T21:03:42.218Z,6.13
2023-05-10T21:06:09.890Z,7.43
2023-05-10T21:08:37.500Z,6.63
2023-05-10T21:11:05.836Z,6.93
2023-05-10T21:13:40.577Z,6.17
2023-05-10T21:16:08.476Z,7.63
2023-05-10T21:18:36.130Z,7.87
2023-05-10T21:21:04.313Z,6.43
2023-05-10T21:23:34.330Z,6.37
2023-05-10T21:26:11.104Z,6.77
2023-05-10T21:28:42.295Z,7.00
2023-05-10T21:31:09.889Z,10.30
2023-05-10T21:33:37.446Z,7.87
2023-05-10T21:36:05.849Z,8.80
2023-05-10T21:38:36.460Z,9.50
2023-05-10T21:41:07.795Z,10.50
2023-05-10T21:43:35.382Z,10.37
2023-05-10T21:46:08.102Z,11.20
2023-05-10T21:48:35.698Z,11.20
2023-05-10T21:51:30.612Z,10.60
2023-05-10T21:54:00.430Z,11.37
2023-05-10T21:56:27.954Z,10.13
2023-05-10T21:58:55.746Z,10.47
2023-05-10T22:01:24.683Z,10.07
2023-05-10T22:03:52.966Z,10.30
2023-05-10T22:06:20.570Z,9.77
2023-05-10T22:08:48.072Z,10.27
2023-05-10T22:11:15.569Z,9.07
2023-05-10T22:13:43.104Z,9.40
2023-05-10T22:16:17.462Z,9.13
2023-05-10T22:18:46.568Z,8.50
2023-05-10T22:21:14.159Z,10.80
2023-05-10T22:23:41.709Z,9.60
2023-05-10T22:26:09.414Z,10.97
2023-05-10T22:28:39.072Z,11.20
2023-05-10T22:31:10.390Z,11.60
2023-05-10T22:33:37.969Z,11.30
2023-05-10T22:36:08.288Z,12.03
2023-05-10T22:38:35.962Z,11.27
2023-05-10T22:41:27.535Z,10.60
2023-05-10T22:44:19.871Z,11.50
2023-05-10T22:46:48.486Z,11.37
2023-05-10T22:49:16.065Z,10.77
2023-05-10T22:51:45.075Z,8.93
2023-05-10T22:54:12.596Z,12.50
2023-05-10T22:56:40.081Z,13.13
2023-05-10T22:59:07.637Z,12.37
2023-05-10T23:01:35.196Z,9.70
2023-05-10T23:04:02.971Z,10.90
2023-05-10T23:06:31.608Z,10.57
2023-05-10T23:09:00.572Z,13.47
2023-05-10T23:11:28.068Z,11.50
2023-05-10T23:13:55.570Z,9.87
2023-05-10T23:16:23.227Z,10.90
2023-05-10T23:18:54.929Z,11.70
2023-05-10T23:21:22.661Z,10.60
2023-05-10T23:23:50.208Z,10.20
2023-05-10T23:26:19.159Z,12.00
2023-05-10T23:28:46.853Z,10.90
2023-05-10T23:31:24.893Z,10.87
2023-05-10T23:33:52.633Z,10.30
2023-05-10T23:36:21.206Z,9.63
2023-05-10T23:38:48.752Z,10.87
2023-05-10T23:41:16.247Z,9.27
2023-05-10T23:43:48.264Z,8.60
2023-05-10T23:46:20.018Z,9.80
2023-05-10T23:48:47.685Z,10.43
2023-05-10T23:51:15.348Z,9.07
2023-05-10T23:53:42.876Z,10.10
2023-05-10T23:56:15.129Z,10.40
2023-05-10T23:58:46.311Z,11.07
